sensor_id;sensor_type;location;lat;lon;timestamp;temperature;humidity
75683;HTU21D;64295;44.772;39.872;2022-12-11T00:00:23;8.58;61.28
75683;HTU21D;64295;44.772;39.872;2022-12-11T00:02:49;8.55;61.36
75683;HTU21D;64295;44.772;39.872;2022-12-11T00:05:15;8.53;61.40
75683;HTU21D;64295;44.772;39.872;2022-12-11T00:07:41;8.53;61.37
75683;HTU21D;64295;44.772;39.872;2022-12-11T00:10:07;8.52;61.37
75683;HTU21D;64295;44.772;39.872;2022-12-11T00:12:34;8.50;61.37
75683;HTU21D;64295;44.772;39.872;2022-12-11T00:14:59;8.49;61.35
75683;HTU21D;64295;44.772;39.872;2022-12-11T00:17:25;8.46;61.39
75683;HTU21D;64295;44.772;39.872;2022-12-11T00:19:51;8.42;61.47
75683;HTU21D;64295;44.772;39.872;2022-12-11T00:22:17;8.39;61.54
75683;HTU21D;64295;44.772;39.872;2022-12-11T00:24:43;8.38;61.58
75683;HTU21D;64295;44.772;39.872;2022-12-11T00:27:09;8.38;61.57
75683;HTU21D;64295;44.772;39.872;2022-12-11T00:29:36;8.41;61.54
75683;HTU21D;64295;44.772;39.872;2022-12-11T00:32:02;8.42;61.53
75683;HTU21D;64295;44.772;39.872;2022-12-11T00:34:29;8.41;61.50
75683;HTU21D;64295;44.772;39.872;2022-12-11T00:36:55;8.43;61.49
75683;HTU21D;64295;44.772;39.872;2022-12-11T00:39:20;8.46;61.46
75683;HTU21D;64295;44.772;39.872;2022-12-11T00:41:46;8.45;61.48
75683;HTU21D;64295;44.772;39.872;2022-12-11T00:44:12;8.41;61.55
75683;HTU21D;64295;44.772;39.872;2022-12-11T00:46:38;8.36;61.64
75683;HTU21D;64295;44.772;39.872;2022-12-11T00:49:04;8.36;61.67
75683;HTU21D;64295;44.772;39.872;2022-12-11T00:51:30;8.35;61.66
75683;HTU21D;64295;44.772;39.872;2022-12-11T00:53:56;8.35;61.71
75683;HTU21D;64295;44.772;39.872;2022-12-11T00:56:22;8.34;61.75
75683;HTU21D;64295;44.772;39.872;2022-12-11T00:58:49;8.36;61.73
75683;HTU21D;64295;44.772;39.872;2022-12-11T01:01:21;8.33;61.80
75683;HTU21D;64295;44.772;39.872;2022-12-11T01:03:48;8.33;61.82
75683;HTU21D;64295;44.772;39.872;2022-12-11T01:06:20;8.31;61.89
75683;HTU21D;64295;44.772;39.872;2022-12-11T01:08:46;8.29;61.90
75683;HTU21D;64295;44.772;39.872;2022-12-11T01:11:15;8.27;61.97
75683;HTU21D;64295;44.772;39.872;2022-12-11T01:13:41;8.28;61.96
75683;HTU21D;64295;44.772;39.872;2022-12-11T01:16:11;8.28;62.01
75683;HTU21D;64295;44.772;39.872;2022-12-11T01:18:38;8.28;62.00
75683;HTU21D;64295;44.772;39.872;2022-12-11T01:21:11;8.28;62.00
75683;HTU21D;64295;44.772;39.872;2022-12-11T01:23:38;8.29;61.99
75683;HTU21D;64295;44.772;39.872;2022-12-11T01:26:09;8.31;61.99
75683;HTU21D;64295;44.772;39.872;2022-12-11T01:28:36;8.34;61.95
75683;HTU21D;64295;44.772;39.872;2022-12-11T01:31:01;8.32;61.97
75683;HTU21D;64295;44.772;39.872;2022-12-11T01:33:28;8.30;61.99
75683;HTU21D;64295;44.772;39.872;2022-12-11T01:35:54;8.28;62.02
75683;HTU21D;64295;44.772;39.872;2022-12-11T01:38:20;8.27;62.02
75683;HTU21D;64295;44.772;39.872;2022-12-11T01:40:50;8.24;62.09
75683;HTU21D;64295;44.772;39.872;2022-12-11T01:43:16;8.21;62.14
75683;HTU21D;64295;44.772;39.872;2022-12-11T01:45:45;8.19;62.18
75683;HTU21D;64295;44.772;39.872;2022-12-11T01:48:23;8.17;62.29
75683;HTU21D;64295;44.772;39.872;2022-12-11T01:50:53;8.17;62.26
75683;HTU21D;64295;44.772;39.872;2022-12-11T01:53:24;8.15;62.29
75683;HTU21D;64295;44.772;39.872;2022-12-11T01:55:52;8.13;62.28
75683;HTU21D;64295;44.772;39.872;2022-12-11T01:58:22;8.08;62.36
75683;HTU21D;64295;44.772;39.872;2022-12-11T02:00:50;8.05;62.39
75683;HTU21D;64295;44.772;39.872;2022-12-11T02:03:17;8.04;62.39
75683;HTU21D;64295;44.772;39.872;2022-12-11T02:05:43;8.06;62.37
75683;HTU21D;64295;44.772;39.872;2022-12-11T02:08:09;8.04;62.37
75683;HTU21D;64295;44.772;39.872;2022-12-11T02:21:37;8.04;62.28
75683;HTU21D;64295;44.772;39.872;2022-12-11T02:30:00;8.02;62.30
75683;HTU21D;64295;44.772;39.872;2022-12-11T02:35:18;8.04;62.31
75683;HTU21D;64295;44.772;39.872;2022-12-11T02:37:47;8.04;62.24
75683;HTU21D;64295;44.772;39.872;2022-12-11T02:40:18;8.03;62.28
75683;HTU21D;64295;44.772;39.872;2022-12-11T02:42:47;8.03;62.29
75683;HTU21D;64295;44.772;39.872;2022-12-11T02:45:15;8.03;62.34
75683;HTU21D;64295;44.772;39.872;2022-12-11T02:47:43;8.02;62.39
75683;HTU21D;64295;44.772;39.872;2022-12-11T02:50:14;8.02;62.44
75683;HTU21D;64295;44.772;39.872;2022-12-11T02:52:42;8.02;62.48
75683;HTU21D;64295;44.772;39.872;2022-12-11T02:55:10;8.02;62.50
75683;HTU21D;64295;44.772;39.872;2022-12-11T02:57:54;8.02;62.53
75683;HTU21D;64295;44.772;39.872;2022-12-11T03:00:21;8.02;62.57
75683;HTU21D;64295;44.772;39.872;2022-12-11T03:02:48;8.02;62.60
75683;HTU21D;64295;44.772;39.872;2022-12-11T03:05:14;8.02;62.62
75683;HTU21D;64295;44.772;39.872;2022-12-11T03:07:42;8.04;62.60
75683;HTU21D;64295;44.772;39.872;2022-12-11T03:10:11;8.05;62.57
75683;HTU21D;64295;44.772;39.872;2022-12-11T03:12:42;8.05;62.61
75683;HTU21D;64295;44.772;39.872;2022-12-11T03:15:13;8.05;62.65
75683;HTU21D;64295;44.772;39.872;2022-12-11T03:23:01;8.03;62.72
75683;HTU21D;64295;44.772;39.872;2022-12-11T03:25:35;8.00;62.80
75683;HTU21D;64295;44.772;39.872;2022-12-11T03:28:12;7.98;62.81
75683;HTU21D;64295;44.772;39.872;2022-12-11T03:30:40;7.96;62.82
75683;HTU21D;64295;44.772;39.872;2022-12-11T03:33:12;7.90;62.87
75683;HTU21D;64295;44.772;39.872;2022-12-11T03:35:54;7.88;62.96
75683;HTU21D;64295;44.772;39.872;2022-12-11T03:38:24;7.85;62.98
75683;HTU21D;64295;44.772;39.872;2022-12-11T03:40:54;7.83;63.02
75683;HTU21D;64295;44.772;39.872;2022-12-11T03:43:21;7.79;63.08
75683;HTU21D;64295;44.772;39.872;2022-12-11T03:45:49;7.76;63.13
75683;HTU21D;64295;44.772;39.872;2022-12-11T03:48:16;7.71;63.21
75683;HTU21D;64295;44.772;39.872;2022-12-11T03:50:44;7.70;63.27
75683;HTU21D;64295;44.772;39.872;2022-12-11T03:53:11;7.70;63.24
75683;HTU21D;64295;44.772;39.872;2022-12-11T03:55:38;7.69;63.24
75683;HTU21D;64295;44.772;39.872;2022-12-11T03:58:05;7.68;63.27
75683;HTU21D;64295;44.772;39.872;2022-12-11T04:00:31;7.67;63.33
75683;HTU21D;64295;44.772;39.872;2022-12-11T04:02:57;7.64;63.34
75683;HTU21D;64295;44.772;39.872;2022-12-11T04:05:41;7.62;63.35
75683;HTU21D;64295;44.772;39.872;2022-12-11T04:08:07;7.56;63.44
75683;HTU21D;64295;44.772;39.872;2022-12-11T04:10:33;7.52;63.50
75683;HTU21D;64295;44.772;39.872;2022-12-11T04:12:59;7.48;63.56
75683;HTU21D;64295;44.772;39.872;2022-12-11T04:15:25;7.45;63.60
75683;HTU21D;64295;44.772;39.872;2022-12-11T04:17:50;7.44;63.63
75683;HTU21D;64295;44.772;39.872;2022-12-11T04:20:35;7.41;63.62
75683;HTU21D;64295;44.772;39.872;2022-12-11T04:23:19;7.38;63.63
75683;HTU21D;64295;44.772;39.872;2022-12-11T04:26:10;7.35;63.66
75683;HTU21D;64295;44.772;39.872;2022-12-11T04:28:37;7.33;63.63
75683;HTU21D;64295;44.772;39.872;2022-12-11T04:31:03;7.37;63.65
75683;HTU21D;64295;44.772;39.872;2022-12-11T04:33:29;7.37;63.63
75683;HTU21D;64295;44.772;39.872;2022-12-11T04:35:59;7.34;63.65
75683;HTU21D;64295;44.772;39.872;2022-12-11T04:38:26;7.34;63.66
75683;HTU21D;64295;44.772;39.872;2022-12-11T04:41:04;7.39;63.63
75683;HTU21D;64295;44.772;39.872;2022-12-11T04:43:30;7.40;63.53
75683;HTU21D;64295;44.772;39.872;2022-12-11T04:46:04;7.40;63.53
75683;HTU21D;64295;44.772;39.872;2022-12-11T04:48:31;7.39;63.52
75683;HTU21D;64295;44.772;39.872;2022-12-11T04:50:57;7.38;63.51
75683;HTU21D;64295;44.772;39.872;2022-12-11T04:53:23;7.39;63.50
75683;HTU21D;64295;44.772;39.872;2022-12-11T04:55:50;7.37;63.53
75683;HTU21D;64295;44.772;39.872;2022-12-11T04:58:16;7.33;63.60
75683;HTU21D;64295;44.772;39.872;2022-12-11T05:00:42;7.32;63.63
75683;HTU21D;64295;44.772;39.872;2022-12-11T05:03:08;7.28;63.69
75683;HTU21D;64295;44.772;39.872;2022-12-11T05:05:34;7.25;63.77
75683;HTU21D;64295;44.772;39.872;2022-12-11T05:08:00;7.23;63.77
75683;HTU21D;64295;44.772;39.872;2022-12-11T05:10:27;7.23;63.79
75683;HTU21D;64295;44.772;39.872;2022-12-11T05:12:53;7.22;63.79
75683;HTU21D;64295;44.772;39.872;2022-12-11T05:15:18;7.26;63.75
75683;HTU21D;64295;44.772;39.872;2022-12-11T05:17:44;7.31;63.64
75683;HTU21D;64295;44.772;39.872;2022-12-11T05:20:10;7.35;63.53
75683;HTU21D;64295;44.772;39.872;2022-12-11T05:22:37;7.37;63.51
75683;HTU21D;64295;44.772;39.872;2022-12-11T05:25:04;7.40;63.49
75683;HTU21D;64295;44.772;39.872;2022-12-11T05:27:30;7.45;63.42
75683;HTU21D;64295;44.772;39.872;2022-12-11T05:29:56;7.47;63.39
75683;HTU21D;64295;44.772;39.872;2022-12-11T05:32:22;7.50;63.37
75683;HTU21D;64295;44.772;39.872;2022-12-11T05:34:49;7.54;63.34
75683;HTU21D;64295;44.772;39.872;2022-12-11T05:37:16;7.57;63.32
75683;HTU21D;64295;44.772;39.872;2022-12-11T05:39:42;7.61;63.21
75683;HTU21D;64295;44.772;39.872;2022-12-11T05:42:08;7.60;63.14
75683;HTU21D;64295;44.772;39.872;2022-12-11T05:44:33;7.63;63.10
75683;HTU21D;64295;44.772;39.872;2022-12-11T05:46:59;7.69;63.01
75683;HTU21D;64295;44.772;39.872;2022-12-11T05:49:25;7.74;62.90
75683;HTU21D;64295;44.772;39.872;2022-12-11T05:51:51;7.78;62.86
75683;HTU21D;64295;44.772;39.872;2022-12-11T05:54:17;7.83;62.81
75683;HTU21D;64295;44.772;39.872;2022-12-11T05:56:43;7.84;62.79
75683;HTU21D;64295;44.772;39.872;2022-12-11T05:59:09;7.88;62.76
75683;HTU21D;64295;44.772;39.872;2022-12-11T06:01:38;7.94;62.69
75683;HTU21D;64295;44.772;39.872;2022-12-11T06:04:05;8.02;62.57
75683;HTU21D;64295;44.772;39.872;2022-12-11T06:06:32;8.13;62.42
75683;HTU21D;64295;44.772;39.872;2022-12-11T06:08:59;8.26;62.22
75683;HTU21D;64295;44.772;39.872;2022-12-11T06:11:26;8.36;62.04
75683;HTU21D;64295;44.772;39.872;2022-12-11T06:13:53;8.48;61.87
75683;HTU21D;64295;44.772;39.872;2022-12-11T06:16:22;8.64;61.70
75683;HTU21D;64295;44.772;39.872;2022-12-11T06:18:48;8.82;61.47
75683;HTU21D;64295;44.772;39.872;2022-12-11T06:23:41;9.12;61.09
75683;HTU21D;64295;44.772;39.872;2022-12-11T06:26:08;9.29;60.89
75683;HTU21D;64295;44.772;39.872;2022-12-11T06:28:34;9.45;60.68
75683;HTU21D;64295;44.772;39.872;2022-12-11T06:31:01;9.60;60.48
75683;HTU21D;64295;44.772;39.872;2022-12-11T06:33:27;9.75;60.29
75683;HTU21D;64295;44.772;39.872;2022-12-11T06:35:53;9.91;60.07
75683;HTU21D;64295;44.772;39.872;2022-12-11T06:38:26;10.01;59.85
75683;HTU21D;64295;44.772;39.872;2022-12-11T06:40:56;10.11;59.73
75683;HTU21D;64295;44.772;39.872;2022-12-11T06:43:23;10.26;59.57
75683;HTU21D;64295;44.772;39.872;2022-12-11T06:45:49;10.38;59.32
75683;HTU21D;64295;44.772;39.872;2022-12-11T06:48:16;10.52;59.19
75683;HTU21D;64295;44.772;39.872;2022-12-11T06:50:42;10.71;58.98
75683;HTU21D;64295;44.772;39.872;2022-12-11T06:53:10;10.89;58.72
75683;HTU21D;64295;44.772;39.872;2022-12-11T06:55:37;11.08;58.46
75683;HTU21D;64295;44.772;39.872;2022-12-11T06:58:03;11.24;58.18
75683;HTU21D;64295;44.772;39.872;2022-12-11T07:00:30;11.37;57.96
75683;HTU21D;64295;44.772;39.872;2022-12-11T07:02:56;11.45;57.81
75683;HTU21D;64295;44.772;39.872;2022-12-11T07:05:22;11.58;57.61
75683;HTU21D;64295;44.772;39.872;2022-12-11T07:07:48;11.73;57.39
75683;HTU21D;64295;44.772;39.872;2022-12-11T07:10:14;11.86;57.15
75683;HTU21D;64295;44.772;39.872;2022-12-11T07:12:40;11.96;56.98
75683;HTU21D;64295;44.772;39.872;2022-12-11T07:15:06;12.11;56.80
75683;HTU21D;64295;44.772;39.872;2022-12-11T07:17:32;12.27;56.57
75683;HTU21D;64295;44.772;39.872;2022-12-11T07:19:58;12.41;56.33
75683;HTU21D;64295;44.772;39.872;2022-12-11T07:22:24;12.58;56.19
75683;HTU21D;64295;44.772;39.872;2022-12-11T07:24:50;12.77;55.94
75683;HTU21D;64295;44.772;39.872;2022-12-11T07:30:21;13.16;55.48
75683;HTU21D;64295;44.772;39.872;2022-12-11T07:32:53;13.32;55.18
75683;HTU21D;64295;44.772;39.872;2022-12-11T07:35:24;13.53;54.90
75683;HTU21D;64295;44.772;39.872;2022-12-11T07:38:11;13.77;54.73
75683;HTU21D;64295;44.772;39.872;2022-12-11T07:40:37;13.96;54.41
75683;HTU21D;64295;44.772;39.872;2022-12-11T07:43:11;14.11;54.13
75683;HTU21D;64295;44.772;39.872;2022-12-11T07:45:47;14.30;54.06
75683;HTU21D;64295;44.772;39.872;2022-12-11T07:48:13;14.52;53.84
75683;HTU21D;64295;44.772;39.872;2022-12-11T07:50:39;14.71;53.59
75683;HTU21D;64295;44.772;39.872;2022-12-11T07:53:08;14.91;53.32
75683;HTU21D;64295;44.772;39.872;2022-12-11T07:55:36;15.10;53.42
75683;HTU21D;64295;44.772;39.872;2022-12-11T07:58:02;15.29;53.46
75683;HTU21D;64295;44.772;39.872;2022-12-11T08:00:30;15.46;52.88
75683;HTU21D;64295;44.772;39.872;2022-12-11T08:02:58;15.61;52.83
75683;HTU21D;64295;44.772;39.872;2022-12-11T08:05:24;15.77;52.59
75683;HTU21D;64295;44.772;39.872;2022-12-11T08:07:50;15.93;52.57
75683;HTU21D;64295;44.772;39.872;2022-12-11T08:10:16;16.08;52.20
75683;HTU21D;64295;44.772;39.872;2022-12-11T08:12:46;16.25;52.23
75683;HTU21D;64295;44.772;39.872;2022-12-11T08:15:12;16.46;51.85
75683;HTU21D;64295;44.772;39.872;2022-12-11T08:17:38;16.65;51.38
75683;HTU21D;64295;44.772;39.872;2022-12-11T08:20:09;16.76;51.14
75683;HTU21D;64295;44.772;39.872;2022-12-11T08:22:34;16.90;50.86
75683;HTU21D;64295;44.772;39.872;2022-12-11T08:25:00;17.11;50.78
75683;HTU21D;64295;44.772;39.872;2022-12-11T08:27:27;17.18;50.23
75683;HTU21D;64295;44.772;39.872;2022-12-11T08:29:53;17.23;49.75
75683;HTU21D;64295;44.772;39.872;2022-12-11T08:32:18;17.30;49.39
75683;HTU21D;64295;44.772;39.872;2022-12-11T08:34:44;17.41;49.26
75683;HTU21D;64295;44.772;39.872;2022-12-11T08:37:10;17.53;48.86
75683;HTU21D;64295;44.772;39.872;2022-12-11T08:39:36;17.72;48.90
75683;HTU21D;64295;44.772;39.872;2022-12-11T08:42:02;17.93;48.57
75683;HTU21D;64295;44.772;39.872;2022-12-11T08:44:28;18.05;47.78
75683;HTU21D;64295;44.772;39.872;2022-12-11T08:46:54;18.14;47.60
75683;HTU21D;64295;44.772;39.872;2022-12-11T08:49:20;18.32;47.42
75683;HTU21D;64295;44.772;39.872;2022-12-11T08:51:48;18.50;46.89
75683;HTU21D;64295;44.772;39.872;2022-12-11T08:54:14;18.62;47.16
75683;HTU21D;64295;44.772;39.872;2022-12-11T08:56:40;18.71;46.79
75683;HTU21D;64295;44.772;39.872;2022-12-11T08:59:06;18.82;46.29
75683;HTU21D;64295;44.772;39.872;2022-12-11T09:01:32;19.01;46.08
75683;HTU21D;64295;44.772;39.872;2022-12-11T09:03:58;19.14;45.63
75683;HTU21D;64295;44.772;39.872;2022-12-11T09:06:26;19.23;45.62
75683;HTU21D;64295;44.772;39.872;2022-12-11T09:08:52;19.31;46.02
75683;HTU21D;64295;44.772;39.872;2022-12-11T09:11:21;19.42;44.96
75683;HTU21D;64295;44.772;39.872;2022-12-11T09:13:47;19.42;45.76
75683;HTU21D;64295;44.772;39.872;2022-12-11T09:16:15;19.53;45.03
75683;HTU21D;64295;44.772;39.872;2022-12-11T09:18:44;19.71;45.19
75683;HTU21D;64295;44.772;39.872;2022-12-11T09:21:13;19.89;45.03
75683;HTU21D;64295;44.772;39.872;2022-12-11T09:23:39;20.02;44.70
75683;HTU21D;64295;44.772;39.872;2022-12-11T09:26:07;20.12;44.45
75683;HTU21D;64295;44.772;39.872;2022-12-11T09:28:35;20.32;44.66
75683;HTU21D;64295;44.772;39.872;2022-12-11T09:31:08;20.46;43.15
75683;HTU21D;64295;44.772;39.872;2022-12-11T09:33:34;20.45;43.02
75683;HTU21D;64295;44.772;39.872;2022-12-11T09:36:01;20.46;43.96
75683;HTU21D;64295;44.772;39.872;2022-12-11T09:38:27;20.63;43.71
75683;HTU21D;64295;44.772;39.872;2022-12-11T09:40:54;20.81;42.71
75683;HTU21D;64295;44.772;39.872;2022-12-11T09:43:45;20.94;42.71
75683;HTU21D;64295;44.772;39.872;2022-12-11T09:46:15;21.09;43.00
75683;HTU21D;64295;44.772;39.872;2022-12-11T09:48:45;21.23;43.39
75683;HTU21D;64295;44.772;39.872;2022-12-11T09:54:04;21.63;43.60
75683;HTU21D;64295;44.772;39.872;2022-12-11T09:56:38;21.69;44.10
75683;HTU21D;64295;44.772;39.872;2022-12-11T10:13:02;21.96;44.54
75683;HTU21D;64295;44.772;39.872;2022-12-11T10:15:39;22.04;43.67
75683;HTU21D;64295;44.772;39.872;2022-12-11T10:18:15;22.05;44.18
75683;HTU21D;64295;44.772;39.872;2022-12-11T10:20:51;22.21;43.57
75683;HTU21D;64295;44.772;39.872;2022-12-11T10:23:45;22.25;43.15
75683;HTU21D;64295;44.772;39.872;2022-12-11T10:26:16;22.28;43.16
75683;HTU21D;64295;44.772;39.872;2022-12-11T10:28:43;22.31;43.57
75683;HTU21D;64295;44.772;39.872;2022-12-11T10:34:12;22.25;43.05
75683;HTU21D;64295;44.772;39.872;2022-12-11T10:36:41;22.32;43.24
75683;HTU21D;64295;44.772;39.872;2022-12-11T10:39:16;22.40;43.43
75683;HTU21D;64295;44.772;39.872;2022-12-11T10:41:50;22.47;42.30
75683;HTU21D;64295;44.772;39.872;2022-12-11T10:44:20;22.47;42.60
75683;HTU21D;64295;44.772;39.872;2022-12-11T10:46:59;22.47;42.95
75683;HTU21D;64295;44.772;39.872;2022-12-11T10:49:28;22.44;42.52
75683;HTU21D;64295;44.772;39.872;2022-12-11T10:51:55;22.36;42.41
75683;HTU21D;64295;44.772;39.872;2022-12-11T10:57:07;22.10;42.65
75683;HTU21D;64295;44.772;39.872;2022-12-11T10:59:43;22.08;42.19
75683;HTU21D;64295;44.772;39.872;2022-12-11T11:04:47;22.02;42.09
75683;HTU21D;64295;44.772;39.872;2022-12-11T11:07:22;21.98;42.43
75683;HTU21D;64295;44.772;39.872;2022-12-11T11:09:49;22.02;42.13
75683;HTU21D;64295;44.772;39.872;2022-12-11T11:12:24;21.95;42.16
75683;HTU21D;64295;44.772;39.872;2022-12-11T11:15:09;21.93;42.57
75683;HTU21D;64295;44.772;39.872;2022-12-11T11:17:51;21.99;42.78
75683;HTU21D;64295;44.772;39.872;2022-12-11T11:20:19;22.03;42.31
75683;HTU21D;64295;44.772;39.872;2022-12-11T11:22:49;21.88;41.90
75683;HTU21D;64295;44.772;39.872;2022-12-11T11:25:18;21.64;41.87
75683;HTU21D;64295;44.772;39.872;2022-12-11T11:27:49;21.45;41.63
75683;HTU21D;64295;44.772;39.872;2022-12-11T11:30:22;21.34;42.06
75683;HTU21D;64295;44.772;39.872;2022-12-11T11:32:53;21.35;41.66
75683;HTU21D;64295;44.772;39.872;2022-12-11T11:35:23;21.29;41.39
75683;HTU21D;64295;44.772;39.872;2022-12-11T11:40:41;20.96;41.81
75683;HTU21D;64295;44.772;39.872;2022-12-11T11:43:15;20.79;42.61
75683;HTU21D;64295;44.772;39.872;2022-12-11T11:45:54;20.59;42.07
75683;HTU21D;64295;44.772;39.872;2022-12-11T11:53:48;20.40;41.69
75683;HTU21D;64295;44.772;39.872;2022-12-11T11:56:22;20.33;41.48
75683;HTU21D;64295;44.772;39.872;2022-12-11T11:59:00;20.29;41.43
75683;HTU21D;64295;44.772;39.872;2022-12-11T12:01:31;20.24;41.30
75683;HTU21D;64295;44.772;39.872;2022-12-11T12:03:57;20.14;41.13
75683;HTU21D;64295;44.772;39.872;2022-12-11T12:09:04;19.85;41.78
75683;HTU21D;64295;44.772;39.872;2022-12-11T12:14:59;19.65;41.29
75683;HTU21D;64295;44.772;39.872;2022-12-11T12:26:27;19.46;41.95
75683;HTU21D;64295;44.772;39.872;2022-12-11T12:32:22;19.08;42.03
75683;HTU21D;64295;44.772;39.872;2022-12-11T12:37:56;18.70;42.58
75683;HTU21D;64295;44.772;39.872;2022-12-11T12:40:31;18.57;42.48
75683;HTU21D;64295;44.772;39.872;2022-12-11T12:43:18;18.43;42.81
75683;HTU21D;64295;44.772;39.872;2022-12-11T12:48:54;18.23;43.19
75683;HTU21D;64295;44.772;39.872;2022-12-11T12:51:30;18.12;43.40
75683;HTU21D;64295;44.772;39.872;2022-12-11T12:54:06;18.05;43.59
75683;HTU21D;64295;44.772;39.872;2022-12-11T12:57:00;17.97;43.89
75683;HTU21D;64295;44.772;39.872;2022-12-11T13:00:25;17.87;44.01
75683;HTU21D;64295;44.772;39.872;2022-12-11T13:02:55;17.70;44.49
75683;HTU21D;64295;44.772;39.872;2022-12-11T13:05:26;17.60;44.64
75683;HTU21D;64295;44.772;39.872;2022-12-11T13:07:58;17.48;44.66
75683;HTU21D;64295;44.772;39.872;2022-12-11T13:10:29;17.35;44.79
75683;HTU21D;64295;44.772;39.872;2022-12-11T13:13:04;17.31;44.91
75683;HTU21D;64295;44.772;39.872;2022-12-11T13:15:38;17.26;44.93
75683;HTU21D;64295;44.772;39.872;2022-12-11T13:18:31;17.22;45.02
75683;HTU21D;64295;44.772;39.872;2022-12-11T13:20:58;17.20;45.10
75683;HTU21D;64295;44.772;39.872;2022-12-11T13:23:32;17.05;45.19
75683;HTU21D;64295;44.772;39.872;2022-12-11T13:26:09;16.96;45.36
75683;HTU21D;64295;44.772;39.872;2022-12-11T13:28:45;16.91;45.31
75683;HTU21D;64295;44.772;39.872;2022-12-11T13:33:48;16.63;45.85
75683;HTU21D;64295;44.772;39.872;2022-12-11T13:36:34;16.50;45.94
75683;HTU21D;64295;44.772;39.872;2022-12-11T13:39:04;16.50;45.93
75683;HTU21D;64295;44.772;39.872;2022-12-11T13:41:47;16.58;45.81
75683;HTU21D;64295;44.772;39.872;2022-12-11T13:44:33;16.63;45.74
75683;HTU21D;64295;44.772;39.872;2022-12-11T13:47:05;16.69;45.76
75683;HTU21D;64295;44.772;39.872;2022-12-11T13:49:36;16.67;45.55
75683;HTU21D;64295;44.772;39.872;2022-12-11T13:52:05;16.58;45.62
75683;HTU21D;64295;44.772;39.872;2022-12-11T13:54:33;16.42;45.72
75683;HTU21D;64295;44.772;39.872;2022-12-11T13:59:36;16.15;45.86
75683;HTU21D;64295;44.772;39.872;2022-12-11T14:02:24;15.95;46.03
75683;HTU21D;64295;44.772;39.872;2022-12-11T14:04:58;15.95;46.12
75683;HTU21D;64295;44.772;39.872;2022-12-11T14:07:51;15.93;46.02
75683;HTU21D;64295;44.772;39.872;2022-12-11T14:10:27;15.88;46.03
75683;HTU21D;64295;44.772;39.872;2022-12-11T14:13:01;15.77;46.19
75683;HTU21D;64295;44.772;39.872;2022-12-11T14:15:29;15.70;46.25
75683;HTU21D;64295;44.772;39.872;2022-12-11T14:17:56;15.68;46.30
75683;HTU21D;64295;44.772;39.872;2022-12-11T14:20:29;15.70;46.22
75683;HTU21D;64295;44.772;39.872;2022-12-11T14:23:20;15.56;46.23
75683;HTU21D;64295;44.772;39.872;2022-12-11T14:25:58;15.31;46.57
75683;HTU21D;64295;44.772;39.872;2022-12-11T14:28:27;15.17;46.74
75683;HTU21D;64295;44.772;39.872;2022-12-11T14:30:56;15.08;46.74
75683;HTU21D;64295;44.772;39.872;2022-12-11T14:33:30;14.98;46.84
75683;HTU21D;64295;44.772;39.872;2022-12-11T14:35:57;14.95;46.88
75683;HTU21D;64295;44.772;39.872;2022-12-11T14:38:26;14.86;46.94
75683;HTU21D;64295;44.772;39.872;2022-12-11T14:41:02;14.74;47.12
75683;HTU21D;64295;44.772;39.872;2022-12-11T14:43:53;14.75;47.12
75683;HTU21D;64295;44.772;39.872;2022-12-11T14:46:35;14.63;47.22
75683;HTU21D;64295;44.772;39.872;2022-12-11T14:49:13;14.52;47.43
75683;HTU21D;64295;44.772;39.872;2022-12-11T14:51:42;14.49;47.44
75683;HTU21D;64295;44.772;39.872;2022-12-11T14:54:23;14.49;47.89
75683;HTU21D;64295;44.772;39.872;2022-12-11T14:56:50;14.48;47.77
75683;HTU21D;64295;44.772;39.872;2022-12-11T14:59:21;14.36;48.08
75683;HTU21D;64295;44.772;39.872;2022-12-11T15:02:16;14.21;48.15
75683;HTU21D;64295;44.772;39.872;2022-12-11T15:04:45;14.07;48.32
75683;HTU21D;64295;44.772;39.872;2022-12-11T15:07:22;14.10;48.20
75683;HTU21D;64295;44.772;39.872;2022-12-11T15:10:03;14.03;48.70
75683;HTU21D;64295;44.772;39.872;2022-12-11T15:12:29;13.95;48.65
75683;HTU21D;64295;44.772;39.872;2022-12-11T15:14:59;13.86;49.15
75683;HTU21D;64295;44.772;39.872;2022-12-11T15:17:26;13.86;49.02
75683;HTU21D;64295;44.772;39.872;2022-12-11T15:19:55;13.91;48.86
75683;HTU21D;64295;44.772;39.872;2022-12-11T15:22:26;13.88;48.72
75683;HTU21D;64295;44.772;39.872;2022-12-11T15:24:56;13.75;48.88
75683;HTU21D;64295;44.772;39.872;2022-12-11T15:27:35;13.74;48.79
75683;HTU21D;64295;44.772;39.872;2022-12-11T15:30:23;13.55;48.92
75683;HTU21D;64295;44.772;39.872;2022-12-11T15:35:36;13.26;49.34
75683;HTU21D;64295;44.772;39.872;2022-12-11T15:38:29;13.09;49.48
75683;HTU21D;64295;44.772;39.872;2022-12-11T15:40:56;13.03;49.68
75683;HTU21D;64295;44.772;39.872;2022-12-11T15:43:22;12.95;49.70
75683;HTU21D;64295;44.772;39.872;2022-12-11T15:45:49;12.85;49.87
75683;HTU21D;64295;44.772;39.872;2022-12-11T15:48:15;12.77;49.98
75683;HTU21D;64295;44.772;39.872;2022-12-11T15:50:41;12.57;50.20
75683;HTU21D;64295;44.772;39.872;2022-12-11T15:53:08;12.35;50.51
75683;HTU21D;64295;44.772;39.872;2022-12-11T15:55:35;12.23;50.69
75683;HTU21D;64295;44.772;39.872;2022-12-11T15:58:05;12.21;50.71
75683;HTU21D;64295;44.772;39.872;2022-12-11T16:00:32;12.14;50.74
75683;HTU21D;64295;44.772;39.872;2022-12-11T16:02:58;12.05;50.97
75683;HTU21D;64295;44.772;39.872;2022-12-11T16:05:24;12.03;51.42
75683;HTU21D;64295;44.772;39.872;2022-12-11T16:07:50;11.99;51.47
75683;HTU21D;64295;44.772;39.872;2022-12-11T16:10:24;12.00;51.30
75683;HTU21D;64295;44.772;39.872;2022-12-11T16:12:51;11.98;51.27
75683;HTU21D;64295;44.772;39.872;2022-12-11T16:15:17;11.97;51.23
75683;HTU21D;64295;44.772;39.872;2022-12-11T16:17:43;11.96;51.17
75683;HTU21D;64295;44.772;39.872;2022-12-11T16:20:10;11.97;51.14
75683;HTU21D;64295;44.772;39.872;2022-12-11T16:22:37;11.93;51.24
75683;HTU21D;64295;44.772;39.872;2022-12-11T16:25:06;11.93;51.17
75683;HTU21D;64295;44.772;39.872;2022-12-11T16:27:32;11.96;51.08
75683;HTU21D;64295;44.772;39.872;2022-12-11T16:29:58;11.92;51.04
75683;HTU21D;64295;44.772;39.872;2022-12-11T16:32:26;11.85;51.09
75683;HTU21D;64295;44.772;39.872;2022-12-11T16:34:52;11.84;51.11
75683;HTU21D;64295;44.772;39.872;2022-12-11T16:37:18;11.77;51.12
75683;HTU21D;64295;44.772;39.872;2022-12-11T16:39:44;11.70;51.17
75683;HTU21D;64295;44.772;39.872;2022-12-11T16:42:11;11.63;51.22
75683;HTU21D;64295;44.772;39.872;2022-12-11T16:44:37;11.57;51.20
75683;HTU21D;64295;44.772;39.872;2022-12-11T16:47:03;11.41;51.32
75683;HTU21D;64295;44.772;39.872;2022-12-11T16:49:30;11.36;51.38
75683;HTU21D;64295;44.772;39.872;2022-12-11T16:51:55;11.40;51.34
75683;HTU21D;64295;44.772;39.872;2022-12-11T16:54:21;11.42;51.30
75683;HTU21D;64295;44.772;39.872;2022-12-11T16:56:47;11.46;51.26
75683;HTU21D;64295;44.772;39.872;2022-12-11T16:59:13;11.40;51.30